sensor_id;sensor_type;location;lat;lon;timestamp;P1;durP1;ratioP1;P2;durP2;ratioP2
69636;SDS011;56860;51.144;16.954;2024-03-23T00:53:40;11.1;;;18.8;;
69636;SDS011;56860;51.144;16.954;2024-03-23T00:54:39;11.7;;;21.7;;
69636;SDS011;56860;51.144;16.954;2024-03-23T00:55:39;11.7;;;21.7;;
69636;SDS011;56860;51.144;16.954;2024-03-23T00:56:39;11.7;;;21.7;;
69636;SDS011;56860;51.144;16.954;2024-03-23T00:57:39;11.4;;;22.9;;
69636;SDS011;56860;51.144;16.954;2024-03-23T00:58:39;11.4;;;22.9;;
69636;SDS011;56860;51.144;16.954;2024-03-23T00:59:39;11.4;;;22.9;;
69636;SDS011;56860;51.144;16.954;2024-03-23T01:00:39;11.1;;;20.0;;
69636;SDS011;56860;51.144;16.954;2024-03-23T01:01:39;11.1;;;20.0;;
69636;SDS011;56860;51.144;16.954;2024-03-23T01:02:39;11.1;;;20.0;;
69636;SDS011;56860;51.144;16.954;2024-03-23T01:03:39;11.6;;;21.4;;
69636;SDS011;56860;51.144;16.954;2024-03-23T01:04:39;11.6;;;21.4;;
69636;SDS011;56860;51.144;16.954;2024-03-23T01:05:39;11.6;;;21.4;;
69636;SDS011;56860;51.144;16.954;2024-03-23T01:06:39;11.4;;;22.7;;
69636;SDS011;56860;51.144;16.954;2024-03-23T01:07:39;11.4;;;22.7;;
69636;SDS011;56860;51.144;16.954;2024-03-23T01:08:39;11.4;;;22.7;;
69636;SDS011;56860;51.144;16.954;2024-03-23T01:09:39;11.6;;;22.2;;
69636;SDS011;56860;51.144;16.954;2024-03-23T01:10:40;11.6;;;22.2;;
69636;SDS011;56860;51.144;16.954;2024-03-23T01:11:39;11.6;;;22.2;;
69636;SDS011;56860;51.144;16.954;2024-03-23T01:12:39;10.9;;;22.5;;
69636;SDS011;56860;51.144;16.954;2024-03-23T01:13:39;10.9;;;22.5;;
69636;SDS011;56860;51.144;16.954;2024-03-23T01:14:39;10.9;;;22.5;;
69636;SDS011;56860;51.144;16.954;2024-03-23T01:15:39;11.4;;;20.0;;
69636;SDS011;56860;51.144;16.954;2024-03-23T01:16:39;11.4;;;20.0;;
69636;SDS011;56860;51.144;16.954;2024-03-23T01:17:39;11.4;;;20.0;;
69636;SDS011;56860;51.144;16.954;2024-03-23T01:18:39;11.5;;;20.7;;
69636;SDS011;56860;51.144;16.954;2024-03-23T01:19:39;11.5;;;20.7;;
69636;SDS011;56860;51.144;16.954;2024-03-23T01:20:39;11.5;;;20.7;;
69636;SDS011;56860;51.144;16.954;2024-03-23T01:21:40;12.3;;;22.1;;
69636;SDS011;56860;51.144;16.954;2024-03-23T01:22:39;12.3;;;22.1;;
69636;SDS011;56860;51.144;16.954;2024-03-23T01:23:39;12.3;;;22.1;;
69636;SDS011;56860;51.144;16.954;2024-03-23T01:24:39;12.2;;;20.4;;
69636;SDS011;56860;51.144;16.954;2024-03-23T01:25:40;12.2;;;20.4;;
69636;SDS011;56860;51.144;16.954;2024-03-23T01:26:39;12.2;;;20.4;;
69636;SDS011;56860;51.144;16.954;2024-03-23T01:27:39;12.0;;;21.3;;
69636;SDS011;56860;51.144;16.954;2024-03-23T01:28:39;12.0;;;21.3;;
69636;SDS011;56860;51.144;16.954;2024-03-23T01:29:39;12.0;;;21.3;;
69636;SDS011;56860;51.144;16.954;2024-03-23T01:30:39;12.4;;;24.6;;
69636;SDS011;56860;51.144;16.954;2024-03-23T01:31:39;12.4;;;24.6;;
69636;SDS011;56860;51.144;16.954;2024-03-23T01:32:39;12.4;;;24.6;;
69636;SDS011;56860;51.144;16.954;2024-03-23T01:35:45;12.8;;;24.7;;
69636;SDS011;56860;51.144;16.954;2024-03-23T01:36:39;12.8;;;24.7;;
69636;SDS011;56860;51.144;16.954;2024-03-23T01:37:40;11.9;;;22.9;;
69636;SDS011;56860;51.144;16.954;2024-03-23T01:38:39;11.9;;;22.9;;
69636;SDS011;56860;51.144;16.954;2024-03-23T01:39:39;11.9;;;22.9;;
69636;SDS011;56860;51.144;16.954;2024-03-23T01:40:39;12.4;;;24.5;;
69636;SDS011;56860;51.144;16.954;2024-03-23T01:41:39;12.4;;;24.5;;
69636;SDS011;56860;51.144;16.954;2024-03-23T01:42:39;12.4;;;24.5;;
69636;SDS011;56860;51.144;16.954;2024-03-23T01:43:39;12.4;;;22.0;;
69636;SDS011;56860;51.144;16.954;2024-03-23T01:44:39;12.4;;;22.0;;
69636;SDS011;56860;51.144;16.954;2024-03-23T01:45:39;12.4;;;22.0;;
69636;SDS011;56860;51.144;16.954;2024-03-23T01:46:39;12.3;;;24.3;;
69636;SDS011;56860;51.144;16.954;2024-03-23T01:47:39;12.3;;;24.3;;
69636;SDS011;56860;51.144;16.954;2024-03-23T01:48:39;12.3;;;24.3;;
69636;SDS011;56860;51.144;16.954;2024-03-23T01:49:40;12.5;;;22.2;;
69636;SDS011;56860;51.144;16.954;2024-03-23T01:50:39;12.5;;;22.2;;
69636;SDS011;56860;51.144;16.954;2024-03-23T01:51:39;12.5;;;22.2;;
69636;SDS011;56860;51.144;16.954;2024-03-23T01:52:39;13.1;;;25.0;;
69636;SDS011;56860;51.144;16.954;2024-03-23T01:53:39;13.1;;;25.0;;
69636;SDS011;56860;51.144;16.954;2024-03-23T01:54:40;13.1;;;25.0;;
69636;SDS011;56860;51.144;16.954;2024-03-23T01:55:40;12.5;;;24.2;;
69636;SDS011;56860;51.144;16.954;2024-03-23T01:56:39;12.5;;;24.2;;
69636;SDS011;56860;51.144;16.954;2024-03-23T01:57:39;12.5;;;24.2;;
69636;SDS011;56860;51.144;16.954;2024-03-23T01:58:39;12.4;;;24.4;;
69636;SDS011;56860;51.144;16.954;2024-03-23T01:59:39;12.4;;;24.4;;
69636;SDS011;56860;51.144;16.954;2024-03-23T02:00:39;12.4;;;24.4;;
69636;SDS011;56860;51.144;16.954;2024-03-23T02:01:39;12.3;;;23.8;;
69636;SDS011;56860;51.144;16.954;2024-03-23T02:02:42;12.3;;;23.8;;
69636;SDS011;56860;51.144;16.954;2024-03-23T02:03:39;12.3;;;23.8;;
69636;SDS011;56860;51.144;16.954;2024-03-23T02:04:39;11.5;;;21.6;;
69636;SDS011;56860;51.144;16.954;2024-03-23T02:05:39;11.5;;;21.6;;
69636;SDS011;56860;51.144;16.954;2024-03-23T02:06:39;11.5;;;21.6;;
69636;SDS011;56860;51.144;16.954;2024-03-23T02:09:40;11.9;;;23.1;;
69636;SDS011;56860;51.144;16.954;2024-03-23T02:10:39;11.9;;;23.1;;
69636;SDS011;56860;51.144;16.954;2024-03-23T02:11:39;12.1;;;24.0;;
69636;SDS011;56860;51.144;16.954;2024-03-23T02:12:39;12.1;;;24.0;;
69636;SDS011;56860;51.144;16.954;2024-03-23T02:13:39;12.1;;;24.0;;
69636;SDS011;56860;51.144;16.954;2024-03-23T02:14:40;11.3;;;24.1;;
69636;SDS011;56860;51.144;16.954;2024-03-23T02:15:39;11.3;;;24.1;;
69636;SDS011;56860;51.144;16.954;2024-03-23T02:16:39;11.3;;;24.1;;
69636;SDS011;56860;51.144;16.954;2024-03-23T02:17:39;11.4;;;19.2;;
69636;SDS011;56860;51.144;16.954;2024-03-23T02:18:39;11.4;;;19.2;;
69636;SDS011;56860;51.144;16.954;2024-03-23T02:19:39;11.4;;;19.2;;
69636;SDS011;56860;51.144;16.954;2024-03-23T02:20:39;11.3;;;19.1;;
69636;SDS011;56860;51.144;16.954;2024-03-23T02:21:40;11.3;;;19.1;;
69636;SDS011;56860;51.144;16.954;2024-03-23T02:22:39;11.3;;;19.1;;
69636;SDS011;56860;51.144;16.954;2024-03-23T02:23:39;11.0;;;20.2;;
69636;SDS011;56860;51.144;16.954;2024-03-23T02:24:39;11.0;;;20.2;;
69636;SDS011;56860;51.144;16.954;2024-03-23T02:25:40;11.0;;;20.2;;
69636;SDS011;56860;51.144;16.954;2024-03-23T02:26:39;11.2;;;21.6;;
69636;SDS011;56860;51.144;16.954;2024-03-23T02:27:39;11.2;;;21.6;;
69636;SDS011;56860;51.144;16.954;2024-03-23T02:28:39;11.2;;;21.6;;
69636;SDS011;56860;51.144;16.954;2024-03-23T02:29:39;10.6;;;17.9;;
69636;SDS011;56860;51.144;16.954;2024-03-23T02:30:39;10.6;;;17.9;;
69636;SDS011;56860;51.144;16.954;2024-03-23T02:31:39;10.6;;;17.9;;
69636;SDS011;56860;51.144;16.954;2024-03-23T02:32:39;10.1;;;19.2;;
69636;SDS011;56860;51.144;16.954;2024-03-23T02:33:40;10.1;;;19.2;;
69636;SDS011;56860;51.144;16.954;2024-03-23T02:34:39;10.1;;;19.2;;
69636;SDS011;56860;51.144;16.954;2024-03-23T02:35:39;11.0;;;20.5;;
69636;SDS011;56860;51.144;16.954;2024-03-23T02:36:39;11.0;;;20.5;;
69636;SDS011;56860;51.144;16.954;2024-03-23T02:37:39;11.0;;;20.5;;
69636;SDS011;56860;51.144;16.954;2024-03-23T02:38:39;10.5;;;18.1;;
69636;SDS011;56860;51.144;16.954;2024-03-23T02:39:40;10.5;;;18.1;;
69636;SDS011;56860;51.144;16.954;2024-03-23T02:40:39;10.5;;;18.1;;
69636;SDS011;56860;51.144;16.954;2024-03-23T02:41:39;10.3;;;18.8;;
69636;SDS011;56860;51.144;16.954;2024-03-23T02:42:39;10.3;;;18.8;;
69636;SDS011;56860;51.144;16.954;2024-03-23T02:43:39;10.3;;;18.8;;
69636;SDS011;56860;51.144;16.954;2024-03-23T02:44:39;11.4;;;20.1;;
69636;SDS011;56860;51.144;16.954;2024-03-23T02:45:39;11.4;;;20.1;;
69636;SDS011;56860;51.144;16.954;2024-03-23T02:46:40;11.4;;;20.1;;
69636;SDS011;56860;51.144;16.954;2024-03-23T02:47:39;10.6;;;17.8;;
69636;SDS011;56860;51.144;16.954;2024-03-23T02:48:39;10.6;;;17.8;;
69636;SDS011;56860;51.144;16.954;2024-03-23T02:49:39;10.6;;;17.8;;
69636;SDS011;56860;51.144;16.954;2024-03-23T02:50:39;10.3;;;19.7;;
69636;SDS011;56860;51.144;16.954;2024-03-23T02:51:39;10.3;;;19.7;;
69636;SDS011;56860;51.144;16.954;2024-03-23T02:52:39;10.3;;;19.7;;
69636;SDS011;56860;51.144;16.954;2024-03-23T02:53:39;10.2;;;18.4;;
69636;SDS011;56860;51.144;16.954;2024-03-23T02:54:39;10.2;;;18.4;;
69636;SDS011;56860;51.144;16.954;2024-03-23T02:55:39;10.2;;;18.4;;
69636;SDS011;56860;51.144;16.954;2024-03-23T02:56:39;10.5;;;17.4;;
69636;SDS011;56860;51.144;16.954;2024-03-23T02:57:40;10.5;;;17.4;;
69636;SDS011;56860;51.144;16.954;2024-03-23T02:58:39;10.5;;;17.4;;
69636;SDS011;56860;51.144;16.954;2024-03-23T02:59:39;10.8;;;21.3;;
69636;SDS011;56860;51.144;16.954;2024-03-23T03:00:39;10.8;;;21.3;;
69636;SDS011;56860;51.144;16.954;2024-03-23T03:01:39;10.8;;;21.3;;
69636;SDS011;56860;51.144;16.954;2024-03-23T03:02:39;11.2;;;20.0;;
69636;SDS011;56860;51.144;16.954;2024-03-23T03:03:39;11.2;;;20.0;;
69636;SDS011;56860;51.144;16.954;2024-03-23T03:04:39;11.2;;;20.0;;
69636;SDS011;56860;51.144;16.954;2024-03-23T03:05:39;11.4;;;21.4;;
69636;SDS011;56860;51.144;16.954;2024-03-23T03:06:39;11.4;;;21.4;;
69636;SDS011;56860;51.144;16.954;2024-03-23T03:07:39;11.4;;;21.4;;
69636;SDS011;56860;51.144;16.954;2024-03-23T03:08:39;10.9;;;18.1;;
69636;SDS011;56860;51.144;16.954;2024-03-23T03:09:40;10.9;;;18.1;;
69636;SDS011;56860;51.144;16.954;2024-03-23T03:10:39;10.9;;;18.1;;
69636;SDS011;56860;51.144;16.954;2024-03-23T03:11:39;11.0;;;19.2;;
69636;SDS011;56860;51.144;16.954;2024-03-23T03:12:39;11.0;;;19.2;;
69636;SDS011;56860;51.144;16.954;2024-03-23T03:13:39;11.0;;;19.2;;
69636;SDS011;56860;51.144;16.954;2024-03-23T03:14:39;10.7;;;19.1;;
69636;SDS011;56860;51.144;16.954;2024-03-23T03:15:39;10.7;;;19.1;;
69636;SDS011;56860;51.144;16.954;2024-03-23T03:16:39;10.7;;;19.1;;
69636;SDS011;56860;51.144;16.954;2024-03-23T03:17:39;10.7;;;17.9;;
69636;SDS011;56860;51.144;16.954;2024-03-23T03:18:40;10.7;;;17.9;;
69636;SDS011;56860;51.144;16.954;2024-03-23T03:19:39;10.7;;;17.9;;
69636;SDS011;56860;51.144;16.954;2024-03-23T03:20:40;10.3;;;16.1;;
69636;SDS011;56860;51.144;16.954;2024-03-23T03:21:39;10.3;;;16.1;;
69636;SDS011;56860;51.144;16.954;2024-03-23T03:22:39;10.3;;;16.1;;
69636;SDS011;56860;51.144;16.954;2024-03-23T03:23:39;10.8;;;19.5;;
69636;SDS011;56860;51.144;16.954;2024-03-23T03:24:39;10.8;;;19.5;;
69636;SDS011;56860;51.144;16.954;2024-03-23T03:25:39;10.8;;;19.5;;
69636;SDS011;56860;51.144;16.954;2024-03-23T03:26:39;11.0;;;19.4;;
69636;SDS011;56860;51.144;16.954;2024-03-23T03:27:40;11.0;;;19.4;;
69636;SDS011;56860;51.144;16.954;2024-03-23T03:28:39;11.0;;;19.4;;
69636;SDS011;56860;51.144;16.954;2024-03-23T03:29:40;10.0;;;16.8;;
69636;SDS011;56860;51.144;16.954;2024-03-23T03:30:39;10.0;;;16.8;;
69636;SDS011;56860;51.144;16.954;2024-03-23T03:31:39;10.0;;;16.8;;
69636;SDS011;56860;51.144;16.954;2024-03-23T03:32:39;11.1;;;18.1;;
69636;SDS011;56860;51.144;16.954;2024-03-23T03:33:40;11.1;;;18.1;;
69636;SDS011;56860;51.144;16.954;2024-03-23T03:34:39;11.1;;;18.1;;
69636;SDS011;56860;51.144;16.954;2024-03-23T03:35:39;11.2;;;19.6;;
69636;SDS011;56860;51.144;16.954;2024-03-23T03:36:39;11.2;;;19.6;;
69636;SDS011;56860;51.144;16.954;2024-03-23T03:37:39;11.2;;;19.6;;
69636;SDS011;56860;51.144;16.954;2024-03-23T03:38:39;10.7;;;21.2;;
69636;SDS011;56860;51.144;16.954;2024-03-23T03:39:40;10.7;;;21.2;;
69636;SDS011;56860;51.144;16.954;2024-03-23T03:40:41;10.7;;;21.2;;
69636;SDS011;56860;51.144;16.954;2024-03-23T03:41:39;11.0;;;19.8;;
69636;SDS011;56860;51.144;16.954;2024-03-23T03:42:39;11.0;;;19.8;;
69636;SDS011;56860;51.144;16.954;2024-03-23T03:43:39;11.0;;;19.8;;
69636;SDS011;56860;51.144;16.954;2024-03-23T03:44:39;10.9;;;19.3;;
69636;SDS011;56860;51.144;16.954;2024-03-23T03:45:40;10.6;;;19.2;;
69636;SDS011;56860;51.144;16.954;2024-03-23T03:46:39;10.6;;;19.2;;
69636;SDS011;56860;51.144;16.954;2024-03-23T03:47:39;11.3;;;21.8;;
69636;SDS011;56860;51.144;16.954;2024-03-23T03:48:39;11.0;;;21.2;;
69636;SDS011;56860;51.144;16.954;2024-03-23T03:49:39;11.0;;;21.2;;
69636;SDS011;56860;51.144;16.954;2024-03-23T03:50:39;11.0;;;21.2;;
69636;SDS011;56860;51.144;16.954;2024-03-23T03:51:40;10.6;;;18.9;;
69636;SDS011;56860;51.144;16.954;2024-03-23T03:52:39;10.6;;;18.9;;
69636;SDS011;56860;51.144;16.954;2024-03-23T03:53:39;10.6;;;18.9;;
69636;SDS011;56860;51.144;16.954;2024-03-23T03:54:39;11.3;;;19.7;;
69636;SDS011;56860;51.144;16.954;2024-03-23T03:55:39;11.3;;;19.7;;
69636;SDS011;56860;51.144;16.954;2024-03-23T03:56:39;11.3;;;19.7;;
69636;SDS011;56860;51.144;16.954;2024-03-23T03:57:40;10.4;;;18.0;;
69636;SDS011;56860;51.144;16.954;2024-03-23T03:58:40;10.4;;;18.0;;
69636;SDS011;56860;51.144;16.954;2024-03-23T03:59:39;10.4;;;18.0;;
69636;SDS011;56860;51.144;16.954;2024-03-23T04:00:39;10.8;;;18.7;;
69636;SDS011;56860;51.144;16.954;2024-03-23T04:01:39;10.8;;;18.7;;
69636;SDS011;56860;51.144;16.954;2024-03-23T04:02:39;10.8;;;18.7;;
69636;SDS011;56860;51.144;16.954;2024-03-23T04:03:39;10.9;;;19.6;;
69636;SDS011;56860;51.144;16.954;2024-03-23T04:04:39;10.9;;;19.6;;
69636;SDS011;56860;51.144;16.954;2024-03-23T04:05:39;10.9;;;19.6;;
69636;SDS011;56860;51.144;16.954;2024-03-23T04:06:39;10.4;;;16.5;;
69636;SDS011;56860;51.144;16.954;2024-03-23T04:07:39;10.4;;;16.5;;
69636;SDS011;56860;51.144;16.954;2024-03-23T04:08:39;10.4;;;16.5;;
69636;SDS011;56860;51.144;16.954;2024-03-23T04:09:40;9.8;;;17.8;;
69636;SDS011;56860;51.144;16.954;2024-03-23T04:10:39;9.8;;;17.8;;
69636;SDS011;56860;51.144;16.954;2024-03-23T04:11:39;9.8;;;17.8;;
69636;SDS011;56860;51.144;16.954;2024-03-23T04:12:39;11.5;;;18.5;;
69636;SDS011;56860;51.144;16.954;2024-03-23T04:13:39;11.5;;;18.5;;
69636;SDS011;56860;51.144;16.954;2024-03-23T04:14:39;11.5;;;18.5;;
69636;SDS011;56860;51.144;16.954;2024-03-23T04:15:40;10.8;;;20.4;;
69636;SDS011;56860;51.144;16.954;2024-03-23T04:16:39;10.8;;;20.4;;
69636;SDS011;56860;51.144;16.954;2024-03-23T04:17:39;10.8;;;20.4;;
69636;SDS011;56860;51.144;16.954;2024-03-23T04:18:39;10.3;;;18.3;;
69636;SDS011;56860;51.144;16.954;2024-03-23T04:19:39;10.3;;;18.3;;
69636;SDS011;56860;51.144;16.954;2024-03-23T04:20:39;10.3;;;18.3;;
69636;SDS011;56860;51.144;16.954;2024-03-23T04:21:40;11.2;;;18.5;;
69636;SDS011;56860;51.144;16.954;2024-03-23T04:22:39;11.2;;;18.5;;
69636;SDS011;56860;51.144;16.954;2024-03-23T04:23:39;11.2;;;18.5;;
69636;SDS011;56860;51.144;16.954;2024-03-23T04:24:39;11.3;;;21.1;;
69636;SDS011;56860;51.144;16.954;2024-03-23T04:25:39;11.3;;;21.1;;
69636;SDS011;56860;51.144;16.954;2024-03-23T04:26:40;11.3;;;21.1;;
69636;SDS011;56860;51.144;16.954;2024-03-23T04:27:40;10.6;;;19.3;;
69636;SDS011;56860;51.144;16.954;2024-03-23T04:28:39;10.6;;;19.3;;
69636;SDS011;56860;51.144;16.954;2024-03-23T04:29:39;10.6;;;19.3;;
69636;SDS011;56860;51.144;16.954;2024-03-23T04:30:39;11.1;;;21.9;;
69636;SDS011;56860;51.144;16.954;2024-03-23T04:31:39;11.1;;;21.9;;
69636;SDS011;56860;51.144;16.954;2024-03-23T04:32:39;11.1;;;21.9;;
69636;SDS011;56860;51.144;16.954;2024-03-23T04:33:40;11.6;;;23.7;;
69636;SDS011;56860;51.144;16.954;2024-03-23T04:34:40;11.6;;;23.7;;
69636;SDS011;56860;51.144;16.954;2024-03-23T04:35:39;11.6;;;23.7;;
69636;SDS011;56860;51.144;16.954;2024-03-23T04:36:39;11.0;;;17.9;;
69636;SDS011;56860;51.144;16.954;2024-03-23T04:37:39;11.0;;;17.9;;
69636;SDS011;56860;51.144;16.954;2024-03-23T04:38:39;11.0;;;17.9;;
69636;SDS011;56860;51.144;16.954;2024-03-23T04:39:40;11.0;;;19.9;;
69636;SDS011;56860;51.144;16.954;2024-03-23T04:40:39;11.0;;;19.9;;
69636;SDS011;56860;51.144;16.954;2024-03-23T04:41:39;11.0;;;19.9;;
69636;SDS011;56860;51.144;16.954;2024-03-23T04:42:39;12.1;;;23.3;;
69636;SDS011;56860;51.144;16.954;2024-03-23T04:43:39;12.1;;;23.3;;
69636;SDS011;56860;51.144;16.954;2024-03-23T04:44:39;12.1;;;23.3;;
69636;SDS011;56860;51.144;16.954;2024-03-23T04:45:40;10.9;;;17.9;;
69636;SDS011;56860;51.144;16.954;2024-03-23T04:46:39;10.9;;;17.9;;
69636;SDS011;56860;51.144;16.954;2024-03-23T04:47:40;10.9;;;17.9;;
69636;SDS011;56860;51.144;16.954;2024-03-23T04:48:39;11.1;;;17.8;;
69636;SDS011;56860;51.144;16.954;2024-03-23T04:49:39;11.1;;;17.8;;
69636;SDS011;56860;51.144;16.954;2024-03-23T04:50:39;11.1;;;17.8;;
69636;SDS011;56860;51.144;16.954;2024-03-23T04:51:40;11.3;;;21.1;;
69636;SDS011;56860;51.144;16.954;2024-03-23T04:52:39;11.3;;;21.1;;
69636;SDS011;56860;51.144;16.954;2024-03-23T04:53:40;11.3;;;21.1;;
69636;SDS011;56860;51.144;16.954;2024-03-23T04:54:39;10.9;;;21.3;;
69636;SDS011;56860;51.144;16.954;2024-03-23T04:55:39;10.9;;;21.3;;
69636;SDS011;56860;51.144;16.954;2024-03-23T04:56:39;10.9;;;21.3;;
69636;SDS011;56860;51.144;16.954;2024-03-23T04:57:40;11.2;;;19.1;;
69636;SDS011;56860;51.144;16.954;2024-03-23T04:58:39;11.2;;;19.1;;
69636;SDS011;56860;51.144;16.954;2024-03-23T04:59:39;11.2;;;19.1;;
69636;SDS011;56860;51.144;16.954;2024-03-23T05:00:39;12.0;;;19.2;;
69636;SDS011;56860;51.144;16.954;2024-03-23T05:01:39;12.0;;;19.2;;
69636;SDS011;56860;51.144;16.954;2024-03-23T05:02:39;12.0;;;19.2;;
69636;SDS011;56860;51.144;16.954;2024-03-23T05:03:40;11.6;;;20.4;;
69636;SDS011;56860;51.144;16.954;2024-03-23T05:04:40;11.6;;;20.4;;
69636;SDS011;56860;51.144;16.954;2024-03-23T05:05:39;11.6;;;20.4;;
69636;SDS011;56860;51.144;16.954;2024-03-23T05:06:39;11.0;;;19.0;;
69636;SDS011;56860;51.144;16.954;2024-03-23T05:07:39;11.0;;;19.0;;
69636;SDS011;56860;51.144;16.954;2024-03-23T05:08:39;11.0;;;19.0;;
69636;SDS011;56860;51.144;16.954;2024-03-23T05:09:40;10.7;;;19.8;;
69636;SDS011;56860;51.144;16.954;2024-03-23T05:10:40;10.7;;;19.8;;
69636;SDS011;56860;51.144;16.954;2024-03-23T05:11:39;10.7;;;19.8;;
69636;SDS011;56860;51.144;16.954;2024-03-23T05:12:39;11.3;;;20.6;;
69636;SDS011;56860;51.144;16.954;2024-03-23T05:13:39;11.3;;;20.6;;
69636;SDS011;56860;51.144;16.954;2024-03-23T05:14:39;11.3;;;20.6;;
69636;SDS011;56860;51.144;16.954;2024-03-23T05:15:40;11.0;;;19.3;;
69636;SDS011;56860;51.144;16.954;2024-03-23T05:16:39;11.0;;;19.3;;
69636;SDS011;56860;51.144;16.954;2024-03-23T05:17:39;11.0;;;19.3;;
69636;SDS011;56860;51.144;16.954;2024-03-23T05:18:39;11.0;;;19.2;;
69636;SDS011;56860;51.144;16.954;2024-03-23T05:19:39;11.0;;;19.2;;
69636;SDS011;56860;51.144;16.954;2024-03-23T05:20:39;11.0;;;19.2;;
69636;SDS011;56860;51.144;16.954;2024-03-23T05:21:40;11.4;;;18.7;;
69636;SDS011;56860;51.144;16.954;2024-03-23T05:22:39;11.4;;;18.7;;
69636;SDS011;56860;51.144;16.954;2024-03-23T05:23:39;11.4;;;18.7;;
69636;SDS011;56860;51.144;16.954;2024-03-23T05:24:39;10.8;;;21.7;;
69636;SDS011;56860;51.144;16.954;2024-03-23T05:25:39;10.8;;;21.7;;
69636;SDS011;56860;51.144;16.954;2024-03-23T05:26:39;10.8;;;21.7;;
69636;SDS011;56860;51.144;16.954;2024-03-23T05:27:40;11.9;;;22.6;;
69636;SDS011;56860;51.144;16.954;2024-03-23T05:28:39;11.9;;;22.6;;
69636;SDS011;56860;51.144;16.954;2024-03-23T05:29:39;11.9;;;22.6;;
69636;SDS011;56860;51.144;16.954;2024-03-23T05:30:39;11.8;;;21.1;;
69636;SDS011;56860;51.144;16.954;2024-03-23T05:31:39;11.8;;;21.1;;
69636;SDS011;56860;51.144;16.954;2024-03-23T05:32:39;11.8;;;21.1;;
69636;SDS011;56860;51.144;16.954;2024-03-23T05:33:40;11.2;;;18.1;;
69636;SDS011;56860;51.144;16.954;2024-03-23T05:34:39;11.2;;;18.1;;
69636;SDS011;56860;51.144;16.954;2024-03-23T05:35:39;11.2;;;18.1;;
69636;SDS011;56860;51.144;16.954;2024-03-23T05:36:39;11.9;;;21.8;;
69636;SDS011;56860;51.144;16.954;2024-03-23T05:37:39;11.9;;;21.8;;
69636;SDS011;56860;51.144;16.954;2024-03-23T05:38:39;11.9;;;21.8;;
69636;SDS011;56860;51.144;16.954;2024-03-23T05:39:40;11.1;;;17.1;;
69636;SDS011;56860;51.144;16.954;2024-03-23T05:40:39;11.1;;;17.1;;
69636;SDS011;56860;51.144;16.954;2024-03-23T05:41:39;11.1;;;17.1;;
69636;SDS011;56860;51.144;16.954;2024-03-23T05:42:39;11.5;;;19.8;;
69636;SDS011;56860;51.144;16.954;2024-03-23T05:43:39;11.5;;;19.8;;
69636;SDS011;56860;51.144;16.954;2024-03-23T05:44:39;11.5;;;19.8;;
69636;SDS011;56860;51.144;16.954;2024-03-23T05:45:40;11.6;;;20.5;;
69636;SDS011;56860;51.144;16.954;2024-03-23T05:46:39;11.5;;;19.6;;
69636;SDS011;56860;51.144;16.954;2024-03-23T05:47:39;11.5;;;19.6;;
69636;SDS011;56860;51.144;16.954;2024-03-23T05:48:39;13.4;;;22.0;;
69636;SDS011;56860;51.144;16.954;2024-03-23T05:49:40;13.0;;;21.2;;
69636;SDS011;56860;51.144;16.954;2024-03-23T05:50:39;13.0;;;21.2;;
69636;SDS011;56860;51.144;16.954;2024-03-23T05:51:40;13.6;;;27.2;;
69636;SDS011;56860;51.144;16.954;2024-03-23T05:52:40;13.4;;;26.3;;
69636;SDS011;56860;51.144;16.954;2024-03-23T05:53:39;13.4;;;26.3;;
69636;SDS011;56860;51.144;16.954;2024-03-23T05:54:39;12.9;;;23.8;;
69636;SDS011;56860;51.144;16.954;2024-03-23T05:55:39;12.6;;;23.4;;
69636;SDS011;56860;51.144;16.954;2024-03-23T05:56:39;12.6;;;23.4;;
69636;SDS011;56860;51.144;16.954;2024-03-23T05:57:40;13.7;;;22.7;;
69636;SDS011;56860;51.144;16.954;2024-03-23T05:58:39;13.4;;;22.6;;
69636;SDS011;56860;51.144;16.954;2024-03-23T05:59:39;13.4;;;22.6;;
69636;SDS011;56860;51.144;16.954;2024-03-23T06:00:39;13.1;;;23.9;;
69636;SDS011;56860;51.144;16.954;2024-03-23T06:01:39;13.0;;;23.8;;
69636;SDS011;56860;51.144;16.954;2024-03-23T06:02:39;13.0;;;23.8;;
69636;SDS011;56860;51.144;16.954;2024-03-23T06:03:40;9.8;;;16.3;;
69636;SDS011;56860;51.144;16.954;2024-03-23T06:04:39;12.6;;;21.5;;
69636;SDS011;56860;51.144;16.954;2024-03-23T06:05:39;12.6;;;21.5;;
69636;SDS011;56860;51.144;16.954;2024-03-23T06:06:39;10.2;;;19.9;;
69636;SDS011;56860;51.144;16.954;2024-03-23T06:07:40;12.2;;;22.7;;
69636;SDS011;56860;51.144;16.954;2024-03-23T06:08:40;12.2;;;22.7;;
69636;SDS011;56860;51.144;16.954;2024-03-23T06:09:40;12.2;;;22.7;;
69636;SDS011;56860;51.144;16.954;2024-03-23T06:10:39;11.4;;;19.3;;
69636;SDS011;56860;51.144;16.954;2024-03-23T06:11:39;11.4;;;19.3;;
69636;SDS011;56860;51.144;16.954;2024-03-23T06:12:39;11.4;;;19.3;;
69636;SDS011;56860;51.144;16.954;2024-03-23T06:13:39;11.9;;;19.4;;
69636;SDS011;56860;51.144;16.954;2024-03-23T06:14:39;11.9;;;19.4;;
69636;SDS011;56860;51.144;16.954;2024-03-23T06:15:40;11.9;;;19.4;;
69636;SDS011;56860;51.144;16.954;2024-03-23T06:16:39;11.4;;;19.0;;
69636;SDS011;56860;51.144;16.954;2024-03-23T06:17:39;11.4;;;19.0;;
69636;SDS011;56860;51.144;16.954;2024-03-23T06:18:39;11.4;;;19.0;;
69636;SDS011;56860;51.144;16.954;2024-03-23T06:19:39;10.9;;;18.5;;
69636;SDS011;56860;51.144;16.954;2024-03-23T06:20:39;10.9;;;18.5;;
69636;SDS011;56860;51.144;16.954;2024-03-23T06:21:42;10.9;;;18.5;;
69636;SDS011;56860;51.144;16.954;2024-03-23T06:22:39;11.2;;;17.9;;
69636;SDS011;56860;51.144;16.954;2024-03-23T06:23:40;11.2;;;17.9;;
69636;SDS011;56860;51.144;16.954;2024-03-23T06:24:39;11.2;;;17.9;;
69636;SDS011;56860;51.144;16.954;2024-03-23T06:25:39;16.2;;;24.1;;
69636;SDS011;56860;51.144;16.954;2024-03-23T06:26:39;16.2;;;24.1;;
69636;SDS011;56860;51.144;16.954;2024-03-23T06:27:40;16.2;;;24.1;;
69636;SDS011;56860;51.144;16.954;2024-03-23T06:28:39;26.3;;;38.4;;
69636;SDS011;56860;51.144;16.954;2024-03-23T06:29:39;26.3;;;38.4;;
69636;SDS011;56860;51.144;16.954;2024-03-23T06:30:39;26.3;;;38.4;;
69636;SDS011;56860;51.144;16.954;2024-03-23T06:31:39;26.5;;;38.5;;
69636;SDS011;56860;51.144;16.954;2024-03-23T06:32:39;26.5;;;38.5;;
69636;SDS011;56860;51.144;16.954;2024-03-23T06:33:40;26.5;;;38.5;;
69636;SDS011;56860;51.144;16.954;2024-03-23T06:34:40;18.9;;;29.9;;
69636;SDS011;56860;51.144;16.954;2024-03-23T06:35:39;18.9;;;29.9;;
69636;SDS011;56860;51.144;16.954;2024-03-23T06:36:39;18.9;;;29.9;;
69636;SDS011;56860;51.144;16.954;2024-03-23T06:37:40;15.8;;;24.2;;
69636;SDS011;56860;51.144;16.954;2024-03-23T06:38:39;15.8;;;24.2;;
69636;SDS011;56860;51.144;16.954;2024-03-23T06:39:40;15.8;;;24.2;;
69636;SDS011;56860;51.144;16.954;2024-03-23T06:40:40;26.0;;;42.8;;
69636;SDS011;56860;51.144;16.954;2024-03-23T06:41:39;26.0;;;42.8;;
69636;SDS011;56860;51.144;16.954;2024-03-23T06:42:39;26.0;;;42.8;;
69636;SDS011;56860;51.144;16.954;2024-03-23T06:43:39;16.2;;;25.7;;
69636;SDS011;56860;51.144;16.954;2024-03-23T06:44:39;16.2;;;25.7;;
69636;SDS011;56860;51.144;16.954;2024-03-23T06:45:40;16.2;;;25.7;;
69636;SDS011;56860;51.144;16.954;2024-03-23T06:46:39;14.7;;;24.2;;
69636;SDS011;56860;51.144;16.954;2024-03-23T06:47:39;14.7;;;24.2;;
69636;SDS011;56860;51.144;16.954;2024-03-23T06:48:39;14.7;;;24.2;;
69636;SDS011;56860;51.144;16.954;2024-03-23T06:49:39;16.3;;;28.1;;
69636;SDS011;56860;51.144;16.954;2024-03-23T06:50:39;16.3;;;28.1;;
69636;SDS011;56860;51.144;16.954;2024-03-23T06:51:40;16.3;;;28.1;;
69636;SDS011;56860;51.144;16.954;2024-03-23T06:52:39;15.3;;;25.2;;
69636;SDS011;56860;51.144;16.954;2024-03-23T06:53:39;15.3;;;25.2;;